sensor_id;sensor_type;location;lat;lon;timestamp;pressure;altitude;pressure_sealevel;temperature;humidity
13348;BME280;6743;49.934;9.138;2023-03-19T00:01:40;100135.09;;;11.26;100.00
13348;BME280;6743;49.934;9.138;2023-03-19T00:04:29;100131.47;;;11.19;100.00
13348;BME280;6743;49.934;9.138;2023-03-19T00:07:06;100143.09;;;11.18;100.00
13348;BME280;6743;49.934;9.138;2023-03-19T00:09:32;100147.41;;;11.11;100.00
13348;BME280;6743;49.934;9.138;2023-03-19T00:11:58;100149.91;;;11.13;100.00
13348;BME280;6743;49.934;9.138;2023-03-19T00:14:24;100145.44;;;11.13;100.00
13348;BME280;6743;49.934;9.138;2023-03-19T00:16:50;100146.22;;;11.14;100.00
13348;BME280;6743;49.934;9.138;2023-03-19T00:19:16;100141.94;;;11.13;100.00
13348;BME280;6743;49.934;9.138;2023-03-19T00:21:43;100155.03;;;11.14;100.00
13348;BME280;6743;49.934;9.138;2023-03-19T00:24:09;100155.84;;;11.15;100.00
13348;BME280;6743;49.934;9.138;2023-03-19T00:26:36;100160.53;;;11.13;100.00
13348;BME280;6743;49.934;9.138;2023-03-19T00:29:03;100161.53;;;11.12;100.00
13348;BME280;6743;49.934;9.138;2023-03-19T00:31:29;100154.03;;;11.07;100.00
13348;BME280;6743;49.934;9.138;2023-03-19T00:33:56;100143.25;;;11.09;100.00
13348;BME280;6743;49.934;9.138;2023-03-19T00:36:23;100141.81;;;11.06;100.00
13348;BME280;6743;49.934;9.138;2023-03-19T00:38:50;100143.44;;;11.07;100.00
13348;BME280;6743;49.934;9.138;2023-03-19T00:41:17;100141.81;;;11.06;100.00
13348;BME280;6743;49.934;9.138;2023-03-19T00:43:45;100143.62;;;11.05;100.00
13348;BME280;6743;49.934;9.138;2023-03-19T00:46:11;100146.44;;;11.04;100.00
13348;BME280;6743;49.934;9.138;2023-03-19T00:48:38;100150.09;;;11.03;100.00
13348;BME280;6743;49.934;9.138;2023-03-19T00:51:05;100152.75;;;11.03;100.00
13348;BME280;6743;49.934;9.138;2023-03-19T00:53:32;100155.25;;;11.04;100.00
13348;BME280;6743;49.934;9.138;2023-03-19T00:56:02;100164.03;;;11.05;100.00
13348;BME280;6743;49.934;9.138;2023-03-19T00:58:28;100169.97;;;11.07;100.00
13348;BME280;6743;49.934;9.138;2023-03-19T01:00:54;100165.69;;;11.06;100.00
13348;BME280;6743;49.934;9.138;2023-03-19T01:03:20;100168.16;;;11.07;100.00
13348;BME280;6743;49.934;9.138;2023-03-19T01:05:46;100166.50;;;11.06;100.00
13348;BME280;6743;49.934;9.138;2023-03-19T01:08:13;100161.53;;;11.03;100.00
13348;BME280;6743;49.934;9.138;2023-03-19T01:10:39;100165.50;;;10.99;100.00
13348;BME280;6743;49.934;9.138;2023-03-19T01:13:06;100162.22;;;10.97;100.00
13348;BME280;6743;49.934;9.138;2023-03-19T01:15:34;100161.72;;;10.94;100.00
13348;BME280;6743;49.934;9.138;2023-03-19T01:18:00;100161.25;;;10.90;100.00
13348;BME280;6743;49.934;9.138;2023-03-19T01:20:26;100145.81;;;10.86;100.00
13348;BME280;6743;49.934;9.138;2023-03-19T01:22:52;100167.22;;;10.84;100.00
13348;BME280;6743;49.934;9.138;2023-03-19T01:25:18;100159.59;;;10.73;100.00
13348;BME280;6743;49.934;9.138;2023-03-19T01:27:44;100166.41;;;10.76;100.00
13348;BME280;6743;49.934;9.138;2023-03-19T01:30:12;100165.91;;;10.72;100.00
13348;BME280;6743;49.934;9.138;2023-03-19T01:32:38;100168.91;;;10.69;100.00
13348;BME280;6743;49.934;9.138;2023-03-19T01:35:05;100168.59;;;10.64;100.00
13348;BME280;6743;49.934;9.138;2023-03-19T01:37:32;100150.16;;;10.46;100.00
13348;BME280;6743;49.934;9.138;2023-03-19T01:39:58;100157.12;;;10.39;100.00
13348;BME280;6743;49.934;9.138;2023-03-19T01:42:24;100166.59;;;10.42;100.00
13348;BME280;6743;49.934;9.138;2023-03-19T01:44:50;100164.44;;;10.37;100.00
13348;BME280;6743;49.934;9.138;2023-03-19T01:47:18;100170.06;;;10.34;100.00
13348;BME280;6743;49.934;9.138;2023-03-19T01:49:52;100166.91;;;10.31;100.00
13348;BME280;6743;49.934;9.138;2023-03-19T01:52:20;100165.91;;;10.32;100.00
13348;BME280;6743;49.934;9.138;2023-03-19T01:54:46;100158.47;;;10.27;100.00
13348;BME280;6743;49.934;9.138;2023-03-19T01:57:13;100151.34;;;10.19;100.00
13348;BME280;6743;49.934;9.138;2023-03-19T01:59:42;100165.59;;;10.26;100.00
13348;BME280;6743;49.934;9.138;2023-03-19T02:02:12;100100.25;;;9.85;100.00
13348;BME280;6743;49.934;9.138;2023-03-19T02:04:42;100164.91;;;10.24;100.00
13348;BME280;6743;49.934;9.138;2023-03-19T02:07:10;100157.47;;;10.20;100.00
13348;BME280;6743;49.934;9.138;2023-03-19T02:09:37;100145.87;;;10.21;100.00
13348;BME280;6743;49.934;9.138;2023-03-19T02:12:05;100141.56;;;10.20;100.00
13348;BME280;6743;49.934;9.138;2023-03-19T02:14:32;100134.59;;;10.19;100.00
13348;BME280;6743;49.934;9.138;2023-03-19T02:16:58;100132.09;;;10.17;100.00
13348;BME280;6743;49.934;9.138;2023-03-19T02:19:29;100137.72;;;10.14;100.00
13348;BME280;6743;49.934;9.138;2023-03-19T02:21:58;100126.59;;;10.11;100.00
13348;BME280;6743;49.934;9.138;2023-03-19T02:24:29;100120.00;;;10.07;100.00
13348;BME280;6743;49.934;9.138;2023-03-19T02:26:57;100105.91;;;9.98;100.00
13348;BME280;6743;49.934;9.138;2023-03-19T02:29:23;100128.75;;;9.99;100.00
13348;BME280;6743;49.934;9.138;2023-03-19T02:31:50;100143.50;;;9.94;100.00
13348;BME280;6743;49.934;9.138;2023-03-19T02:34:33;100135.84;;;9.82;100.00
13348;BME280;6743;49.934;9.138;2023-03-19T02:37:04;100155.56;;;9.80;100.00
13348;BME280;6743;49.934;9.138;2023-03-19T02:39:37;100148.91;;;9.76;100.00
13348;BME280;6743;49.934;9.138;2023-03-19T02:42:09;100158.84;;;9.74;100.00
13348;BME280;6743;49.934;9.138;2023-03-19T02:44:36;100150.72;;;9.59;100.00
13348;BME280;6743;49.934;9.138;2023-03-19T02:47:02;100102.59;;;9.30;100.00
13348;BME280;6743;49.934;9.138;2023-03-19T02:49:28;100134.78;;;9.51;100.00
13348;BME280;6743;49.934;9.138;2023-03-19T02:51:54;100152.56;;;9.67;100.00
13348;BME280;6743;49.934;9.138;2023-03-19T02:54:20;100144.25;;;9.70;100.00
13348;BME280;6743;49.934;9.138;2023-03-19T02:56:46;100133.19;;;9.66;100.00
13348;BME280;6743;49.934;9.138;2023-03-19T02:59:14;100154.22;;;9.76;100.00
13348;BME280;6743;49.934;9.138;2023-03-19T03:01:40;100152.22;;;9.78;100.00
13348;BME280;6743;49.934;9.138;2023-03-19T03:04:06;100157.72;;;9.84;100.00
13348;BME280;6743;49.934;9.138;2023-03-19T03:06:33;100157.88;;;9.83;100.00
13348;BME280;6743;49.934;9.138;2023-03-19T03:08:59;100169.66;;;9.88;100.00
13348;BME280;6743;49.934;9.138;2023-03-19T03:11:25;100170.47;;;9.89;100.00
13348;BME280;6743;49.934;9.138;2023-03-19T03:13:51;100167.66;;;9.91;100.00
13348;BME280;6743;49.934;9.138;2023-03-19T03:16:18;100166.66;;;9.92;100.00
13348;BME280;6743;49.934;9.138;2023-03-19T03:18:44;100170.97;;;9.93;100.00
13348;BME280;6743;49.934;9.138;2023-03-19T03:21:10;100169.31;;;9.92;100.00
13348;BME280;6743;49.934;9.138;2023-03-19T03:23:36;100159.22;;;9.87;100.00
13348;BME280;6743;49.934;9.138;2023-03-19T03:26:02;100173.31;;;9.96;100.00
13348;BME280;6743;49.934;9.138;2023-03-19T03:28:28;100175.97;;;9.96;100.00
13348;BME280;6743;49.934;9.138;2023-03-19T03:30:57;100167.16;;;9.87;100.00
13348;BME280;6743;49.934;9.138;2023-03-19T03:33:24;100176.59;;;9.89;100.00
13348;BME280;6743;49.934;9.138;2023-03-19T03:35:50;100171.78;;;9.85;100.00
13348;BME280;6743;49.934;9.138;2023-03-19T03:38:16;100181.59;;;9.93;100.00
13348;BME280;6743;49.934;9.138;2023-03-19T03:40:42;100179.09;;;9.91;100.00
13348;BME280;6743;49.934;9.138;2023-03-19T03:43:18;100185.22;;;9.92;100.00
13348;BME280;6743;49.934;9.138;2023-03-19T03:45:45;100179.25;;;9.89;100.00
13348;BME280;6743;49.934;9.138;2023-03-19T03:48:21;100193.66;;;9.87;100.00
13348;BME280;6743;49.934;9.138;2023-03-19T03:50:48;100181.56;;;9.84;100.00
13348;BME280;6743;49.934;9.138;2023-03-19T03:53:17;100187.19;;;9.81;100.00
13348;BME280;6743;49.934;9.138;2023-03-19T03:55:43;100189.00;;;9.81;100.00
13348;BME280;6743;49.934;9.138;2023-03-19T03:58:09;100186.53;;;9.79;100.00
13348;BME280;6743;49.934;9.138;2023-03-19T04:00:35;100192.13;;;9.76;100.00
13348;BME280;6743;49.934;9.138;2023-03-19T04:03:01;100175.56;;;9.66;100.00
13348;BME280;6743;49.934;9.138;2023-03-19T04:05:27;100187.47;;;9.70;100.00
13348;BME280;6743;49.934;9.138;2023-03-19T04:07:54;100187.31;;;9.72;100.00
13348;BME280;6743;49.934;9.138;2023-03-19T04:10:20;100121.44;;;9.27;100.00
13348;BME280;6743;49.934;9.138;2023-03-19T04:12:46;100170.53;;;9.55;100.00
13348;BME280;6743;49.934;9.138;2023-03-19T04:15:12;100190.63;;;9.66;100.00
13348;BME280;6743;49.934;9.138;2023-03-19T04:17:38;100184.78;;;9.62;100.00
13348;BME280;6743;49.934;9.138;2023-03-19T04:20:06;100192.09;;;9.60;100.00
13348;BME280;6743;49.934;9.138;2023-03-19T04:22:32;100192.25;;;9.59;100.00
13348;BME280;6743;49.934;9.138;2023-03-19T04:24:59;100191.72;;;9.55;100.00
13348;BME280;6743;49.934;9.138;2023-03-19T04:27:25;100200.84;;;9.53;100.00
13348;BME280;6743;49.934;9.138;2023-03-19T04:29:51;100201.12;;;9.49;100.00
13348;BME280;6743;49.934;9.138;2023-03-19T04:32:17;100202.94;;;9.49;100.00
13348;BME280;6743;49.934;9.138;2023-03-19T04:34:43;100204.13;;;9.46;100.00
13348;BME280;6743;49.934;9.138;2023-03-19T04:37:10;100204.44;;;9.43;100.00
13348;BME280;6743;49.934;9.138;2023-03-19T04:39:36;100205.25;;;9.44;100.00
13348;BME280;6743;49.934;9.138;2023-03-19T04:42:02;100200.13;;;9.42;100.00
13348;BME280;6743;49.934;9.138;2023-03-19T04:44:29;100200.94;;;9.43;100.00
13348;BME280;6743;49.934;9.138;2023-03-19T04:46:55;100203.75;;;9.41;100.00
13348;BME280;6743;49.934;9.138;2023-03-19T04:49:22;100194.31;;;9.39;100.00
13348;BME280;6743;49.934;9.138;2023-03-19T04:51:49;100204.72;;;9.40;100.00
13348;BME280;6743;49.934;9.138;2023-03-19T04:54:15;100202.09;;;9.40;100.00
13348;BME280;6743;49.934;9.138;2023-03-19T04:56:41;100210.22;;;9.39;100.00
13348;BME280;6743;49.934;9.138;2023-03-19T04:59:07;100205.75;;;9.39;100.00
13348;BME280;6743;49.934;9.138;2023-03-19T05:01:35;100207.72;;;9.37;100.00
13348;BME280;6743;49.934;9.138;2023-03-19T05:04:01;100214.97;;;9.35;100.00
13348;BME280;6743;49.934;9.138;2023-03-19T05:06:27;100217.47;;;9.37;100.00
13348;BME280;6743;49.934;9.138;2023-03-19T05:08:53;100219.28;;;9.36;100.00
13348;BME280;6743;49.934;9.138;2023-03-19T05:11:19;100211.16;;;9.30;100.00
13348;BME280;6743;49.934;9.138;2023-03-19T05:13:45;100231.22;;;9.40;100.00
13348;BME280;6743;49.934;9.138;2023-03-19T05:16:12;100235.38;;;9.43;100.00
13348;BME280;6743;49.934;9.138;2023-03-19T05:18:38;100234.53;;;9.42;100.00
13348;BME280;6743;49.934;9.138;2023-03-19T05:21:04;100227.41;;;9.43;100.00
13348;BME280;6743;49.934;9.138;2023-03-19T05:23:30;100225.75;;;9.42;100.00
13348;BME280;6743;49.934;9.138;2023-03-19T05:25:57;100235.53;;;9.41;100.00
13348;BME280;6743;49.934;9.138;2023-03-19T05:28:23;100237.50;;;9.39;100.00
13348;BME280;6743;49.934;9.138;2023-03-19T05:30:49;100243.47;;;9.41;100.00
13348;BME280;6743;49.934;9.138;2023-03-19T05:33:16;100243.47;;;9.41;100.00
13348;BME280;6743;49.934;9.138;2023-03-19T05:35:42;100239.97;;;9.41;100.00
13348;BME280;6743;49.934;9.138;2023-03-19T05:38:08;100233.16;;;9.30;100.00
13348;BME280;6743;49.934;9.138;2023-03-19T05:40:35;100247.78;;;9.42;100.00
13348;BME280;6743;49.934;9.138;2023-03-19T05:43:01;100253.06;;;9.42;100.00
13348;BME280;6743;49.934;9.138;2023-03-19T05:45:27;100246.28;;;9.40;100.00
13348;BME280;6743;49.934;9.138;2023-03-19T05:47:54;100248.94;;;9.40;100.00
13348;BME280;6743;49.934;9.138;2023-03-19T05:50:21;100251.41;;;9.41;100.00
13348;BME280;6743;49.934;9.138;2023-03-19T05:52:47;100255.88;;;9.41;100.00
13348;BME280;6743;49.934;9.138;2023-03-19T05:55:13;100256.69;;;9.41;100.00
13348;BME280;6743;49.934;9.138;2023-03-19T05:57:39;100264.63;;;9.41;100.00
13348;BME280;6743;49.934;9.138;2023-03-19T06:00:08;100265.81;;;9.39;100.00
13348;BME280;6743;49.934;9.138;2023-03-19T06:02:35;100258.50;;;9.41;100.00
13348;BME280;6743;49.934;9.138;2023-03-19T06:05:01;100261.00;;;9.42;100.00
13348;BME280;6743;49.934;9.138;2023-03-19T06:07:28;100269.28;;;9.39;100.00
13348;BME280;6743;49.934;9.138;2023-03-19T06:09:53;100256.63;;;9.25;100.00
13348;BME280;6743;49.934;9.138;2023-03-19T06:12:20;100282.53;;;9.39;100.00
13348;BME280;6743;49.934;9.138;2023-03-19T06:14:46;100287.97;;;9.38;100.00
13348;BME280;6743;49.934;9.138;2023-03-19T06:17:12;100272.56;;;9.33;100.00
13348;BME280;6743;49.934;9.138;2023-03-19T06:19:38;100284.34;;;9.39;100.00
13348;BME280;6743;49.934;9.138;2023-03-19T06:22:04;100279.69;;;9.41;100.00
13348;BME280;6743;49.934;9.138;2023-03-19T06:24:31;100286.00;;;9.40;100.00
13348;BME280;6743;49.934;9.138;2023-03-19T06:26:58;100289.31;;;9.42;100.00
13348;BME280;6743;49.934;9.138;2023-03-19T06:29:24;100284.34;;;9.39;100.00
13348;BME280;6743;49.934;9.138;2023-03-19T06:31:50;100294.44;;;9.43;100.00
13348;BME280;6743;49.934;9.138;2023-03-19T06:34:16;100294.81;;;9.48;100.00
13348;BME280;6743;49.934;9.138;2023-03-19T06:36:43;100298.97;;;9.51;100.00
13348;BME280;6743;49.934;9.138;2023-03-19T06:39:09;100296.16;;;9.53;100.00
13348;BME280;6743;49.934;9.138;2023-03-19T06:41:36;100298.66;;;9.54;100.00
13348;BME280;6743;49.934;9.138;2023-03-19T06:44:02;100294.03;;;9.56;100.00
13348;BME280;6743;49.934;9.138;2023-03-19T06:46:29;100291.72;;;9.53;100.00
13348;BME280;6743;49.934;9.138;2023-03-19T06:48:56;100293.72;;;9.59;100.00
13348;BME280;6743;49.934;9.138;2023-03-19T06:51:22;100286.75;;;9.58;100.00
13348;BME280;6743;49.934;9.138;2023-03-19T06:53:48;100286.28;;;9.63;100.00
13348;BME280;6743;49.934;9.138;2023-03-19T06:56:14;100297.56;;;9.65;100.00
13348;BME280;6743;49.934;9.138;2023-03-19T06:58:41;100305.19;;;9.68;100.00
13348;BME280;6743;49.934;9.138;2023-03-19T07:01:07;100304.19;;;9.69;100.00
13348;BME280;6743;49.934;9.138;2023-03-19T07:03:33;100310.31;;;9.69;100.00
13348;BME280;6743;49.934;9.138;2023-03-19T07:05:59;100317.28;;;9.70;100.00
13348;BME280;6743;49.934;9.138;2023-03-19T07:08:26;100319.94;;;9.70;100.00
13348;BME280;6743;49.934;9.138;2023-03-19T07:10:54;100320.59;;;9.72;100.00
13348;BME280;6743;49.934;9.138;2023-03-19T07:13:20;100312.47;;;9.66;100.00
13348;BME280;6743;49.934;9.138;2023-03-19T07:15:47;100317.63;;;9.75;100.00
13348;BME280;6743;49.934;9.138;2023-03-19T07:18:13;100331.56;;;9.77;100.00
13348;BME280;6743;49.934;9.138;2023-03-19T07:20:39;100325.56;;;9.75;100.00
13348;BME280;6743;49.934;9.138;2023-03-19T07:23:05;100332.25;;;9.79;100.00
13348;BME280;6743;49.934;9.138;2023-03-19T07:25:31;100336.06;;;9.85;100.00
13348;BME280;6743;49.934;9.138;2023-03-19T07:27:57;100338.56;;;9.86;100.00
13348;BME280;6743;49.934;9.138;2023-03-19T07:30:23;100335.59;;;9.89;100.00
13348;BME280;6743;49.934;9.138;2023-03-19T07:32:50;100336.94;;;9.94;100.00
13348;BME280;6743;49.934;9.138;2023-03-19T07:35:16;100328.66;;;9.97;100.00
13348;BME280;6743;49.934;9.138;2023-03-19T07:37:42;100332.00;;;9.99;100.00
13348;BME280;6743;49.934;9.138;2023-03-19T07:40:09;100309.41;;;9.86;100.00
13348;BME280;6743;49.934;9.138;2023-03-19T07:42:35;100336.50;;;10.06;100.00
13348;BME280;6743;49.934;9.138;2023-03-19T07:45:03;100331.69;;;10.10;100.00
13348;BME280;6743;49.934;9.138;2023-03-19T07:47:29;100344.63;;;10.13;100.00
13348;BME280;6743;49.934;9.138;2023-03-19T07:49:55;100342.53;;;10.16;100.00
13348;BME280;6743;49.934;9.138;2023-03-19T07:52:22;100345.84;;;10.18;100.00
13348;BME280;6743;49.934;9.138;2023-03-19T07:54:48;100346.38;;;10.22;100.00
13348;BME280;6743;49.934;9.138;2023-03-19T07:57:15;100346.38;;;10.22;100.00
13348;BME280;6743;49.934;9.138;2023-03-19T07:59:41;100349.37;;;10.27;100.00
13348;BME280;6743;49.934;9.138;2023-03-19T08:02:09;100349.56;;;10.34;100.00
13348;BME280;6743;49.934;9.138;2023-03-19T08:04:35;100350.22;;;10.36;100.00
13348;BME280;6743;49.934;9.138;2023-03-19T08:07:02;100348.06;;;10.39;100.00
13348;BME280;6743;49.934;9.138;2023-03-19T08:09:28;100346.78;;;10.43;100.00
13348;BME280;6743;49.934;9.138;2023-03-19T08:11:54;100352.56;;;10.47;100.00
13348;BME280;6743;49.934;9.138;2023-03-19T08:14:20;100351.59;;;10.48;100.00
13348;BME280;6743;49.934;9.138;2023-03-19T08:16:47;100347.59;;;10.52;100.00
13348;BME280;6743;49.934;9.138;2023-03-19T08:19:13;100348.81;;;10.57;100.00
13348;BME280;6743;49.934;9.138;2023-03-19T08:21:39;100347.62;;;10.60;100.00
13348;BME280;6743;49.934;9.138;2023-03-19T08:24:06;100347.31;;;10.63;100.00
13348;BME280;6743;49.934;9.138;2023-03-19T08:26:32;100346.81;;;10.68;100.00
13348;BME280;6743;49.934;9.138;2023-03-19T08:28:57;100355.47;;;10.70;100.00
13348;BME280;6743;49.934;9.138;2023-03-19T08:31:23;100355.13;;;10.73;100.00
13348;BME280;6743;49.934;9.138;2023-03-19T08:33:50;100352.97;;;10.76;100.00
13348;BME280;6743;49.934;9.138;2023-03-19T08:36:16;100360.44;;;10.81;100.00
13348;BME280;6743;49.934;9.138;2023-03-19T08:38:42;100360.13;;;10.84;100.00
13348;BME280;6743;49.934;9.138;2023-03-19T08:41:09;100350.66;;;10.89;100.00
13348;BME280;6743;49.934;9.138;2023-03-19T08:43:36;100357.81;;;10.97;100.00
13348;BME280;6743;49.934;9.138;2023-03-19T08:46:02;100353.66;;;11.02;100.00
13348;BME280;6743;49.934;9.138;2023-03-19T08:48:28;100356.66;;;11.07;100.00
13348;BME280;6743;49.934;9.138;2023-03-19T08:50:57;100356.16;;;11.12;100.00
13348;BME280;6743;49.934;9.138;2023-03-19T08:53:24;100360.81;;;11.18;100.00
13348;BME280;6743;49.934;9.138;2023-03-19T08:55:51;100364.78;;;11.22;100.00
13348;BME280;6743;49.934;9.138;2023-03-19T08:58:18;100362.44;;;11.27;100.00
13348;BME280;6743;49.934;9.138;2023-03-19T09:00:44;100355.81;;;11.31;100.00
13348;BME280;6743;49.934;9.138;2023-03-19T09:03:10;100368.59;;;11.36;100.00
13348;BME280;6743;49.934;9.138;2023-03-19T09:05:36;100369.94;;;11.40;100.00
13348;BME280;6743;49.934;9.138;2023-03-19T09:08:02;100370.41;;;11.43;100.00
13348;BME280;6743;49.934;9.138;2023-03-19T09:10:28;100359.28;;;11.48;100.00
13348;BME280;6743;49.934;9.138;2023-03-19T09:12:54;100364.78;;;11.55;100.00
13348;BME280;6743;49.934;9.138;2023-03-19T09:15:21;100366.09;;;11.59;100.00
13348;BME280;6743;49.934;9.138;2023-03-19T09:17:47;100371.72;;;11.64;100.00
13348;BME280;6743;49.934;9.138;2023-03-19T09:20:13;100369.37;;;11.69;100.00
13348;BME280;6743;49.934;9.138;2023-03-19T09:22:39;100373.25;;;11.74;100.00
13348;BME280;6743;49.934;9.138;2023-03-19T09:25:06;100370.75;;;11.81;100.00
13348;BME280;6743;49.934;9.138;2023-03-19T09:27:32;100371.03;;;11.86;100.00
13348;BME280;6743;49.934;9.138;2023-03-19T09:29:58;100379.16;;;11.93;100.00
13348;BME280;6743;49.934;9.138;2023-03-19T09:32:25;100381.50;;;11.96;100.00
13348;BME280;6743;49.934;9.138;2023-03-19T09:34:51;100385.13;;;12.03;100.00
13348;BME280;6743;49.934;9.138;2023-03-19T09:37:16;100384.44;;;12.09;100.00
13348;BME280;6743;49.934;9.138;2023-03-19T09:39:42;100381.09;;;12.15;100.00
13348;BME280;6743;49.934;9.138;2023-03-19T09:42:18;100375.91;;;12.21;100.00
13348;BME280;6743;49.934;9.138;2023-03-19T09:44:47;100377.06;;;12.27;100.00
13348;BME280;6743;49.934;9.138;2023-03-19T09:47:26;100377.19;;;12.34;100.00
13348;BME280;6743;49.934;9.138;2023-03-19T09:49:55;100380.47;;;12.44;100.00
13348;BME280;6743;49.934;9.138;2023-03-19T09:52:39;100379.63;;;12.51;100.00
13348;BME280;6743;49.934;9.138;2023-03-19T09:55:13;100375.06;;;12.60;100.00
13348;BME280;6743;49.934;9.138;2023-03-19T09:57:41;100378.69;;;12.67;100.00
13348;BME280;6743;49.934;9.138;2023-03-19T10:00:19;100371.66;;;12.74;100.00
13348;BME280;6743;49.934;9.138;2023-03-19T10:02:52;100368.28;;;12.80;100.00
13348;BME280;6743;49.934;9.138;2023-03-19T10:05:24;100364.09;;;12.86;100.00
13348;BME280;6743;49.934;9.138;2023-03-19T10:10:52;100365.69;;;12.95;100.00
13348;BME280;6743;49.934;9.138;2023-03-19T10:13:35;100361.84;;;12.97;100.00
13348;BME280;6743;49.934;9.138;2023-03-19T10:16:06;100367.47;;;13.02;100.00
13348;BME280;6743;49.934;9.138;2023-03-19T10:18:41;100367.97;;;13.06;100.00
13348;BME280;6743;49.934;9.138;2023-03-19T10:21:12;100366.75;;;13.09;100.00
13348;BME280;6743;49.934;9.138;2023-03-19T10:23:43;100359.25;;;13.12;100.00
13348;BME280;6743;49.934;9.138;2023-03-19T10:26:12;100371.06;;;13.18;100.00
13348;BME280;6743;49.934;9.138;2023-03-19T10:28:40;100363.16;;;13.24;100.00
13348;BME280;6743;49.934;9.138;2023-03-19T10:31:26;100367.59;;;13.32;100.00
13348;BME280;6743;49.934;9.138;2023-03-19T10:34:04;100362.37;;;13.38;100.00
13348;BME280;6743;49.934;9.138;2023-03-19T10:36:34;100365.97;;;13.46;100.00
13348;BME280;6743;49.934;9.138;2023-03-19T10:39:00;100365.44;;;13.50;100.00
13348;BME280;6743;49.934;9.138;2023-03-19T10:41:37;100369.41;;;13.54;100.00
13348;BME280;6743;49.934;9.138;2023-03-19T10:44:11;100368.19;;;13.57;100.00
13348;BME280;6743;49.934;9.138;2023-03-19T10:46:40;100370.50;;;13.60;100.00
13348;BME280;6743;49.934;9.138;2023-03-19T10:49:11;100359.47;;;13.63;100.00
13348;BME280;6743;49.934;9.138;2023-03-19T10:51:37;100362.63;;;13.66;100.00
13348;BME280;6743;49.934;9.138;2023-03-19T10:54:17;100363.91;;;13.70;100.00
13348;BME280;6743;49.934;9.138;2023-03-19T10:56:45;100362.53;;;13.74;100.00
13348;BME280;6743;49.934;9.138;2023-03-19T10:59:21;100362.97;;;13.78;100.00
13348;BME280;6743;49.934;9.138;2023-03-19T11:01:47;100368.59;;;13.83;100.00
13348;BME280;6743;49.934;9.138;2023-03-19T11:04:16;100361.72;;;13.89;100.00
13348;BME280;6743;49.934;9.138;2023-03-19T11:06:48;100351.50;;;13.92;100.00
13348;BME280;6743;49.934;9.138;2023-03-19T11:09:20;100357.31;;;13.96;100.00
13348;BME280;6743;49.934;9.138;2023-03-19T11:11:49;100362.91;;;14.01;100.00
13348;BME280;6743;49.934;9.138;2023-03-19T11:14:19;100354.34;;;14.05;100.00
13348;BME280;6743;49.934;9.138;2023-03-19T11:16:48;100356.47;;;14.10;100.00
13348;BME280;6743;49.934;9.138;2023-03-19T11:19:19;100353.69;;;14.18;100.00
13348;BME280;6743;49.934;9.138;2023-03-19T11:21:54;100351.31;;;14.23;100.00
13348;BME280;6743;49.934;9.138;2023-03-19T11:24:25;100343.75;;;14.27;100.00
13348;BME280;6743;49.934;9.138;2023-03-19T11:26:53;100350.16;;;14.32;100.00
13348;BME280;6743;49.934;9.138;2023-03-19T11:29:20;100353.13;;;14.37;100.00
13348;BME280;6743;49.934;9.138;2023-03-19T11:31:50;100354.25;;;14.43;100.00
13348;BME280;6743;49.934;9.138;2023-03-19T11:34:28;100348.53;;;14.46;100.00
13348;BME280;6743;49.934;9.138;2023-03-19T11:37:03;100336.22;;;14.45;100.00
13348;BME280;6743;49.934;9.138;2023-03-19T11:39:38;100335.06;;;14.54;100.00
13348;BME280;6743;49.934;9.138;2023-03-19T11:42:28;100334.69;;;14.57;100.00
13348;BME280;6743;49.934;9.138;2023-03-19T11:45:07;100325.28;;;14.61;100.00
13348;BME280;6743;49.934;9.138;2023-03-19T11:47:43;100332.09;;;14.64;100.00
13348;BME280;6743;49.934;9.138;2023-03-19T11:50:19;100324.75;;;14.66;100.00
13348;BME280;6743;49.934;9.138;2023-03-19T11:52:59;100321.03;;;14.67;100.00
13348;BME280;6743;49.934;9.138;2023-03-19T11:55:30;100329.56;;;14.77;100.00
13348;BME280;6743;49.934;9.138;2023-03-19T11:58:12;100315.44;;;14.83;100.00
13348;BME280;6743;49.934;9.138;2023-03-19T12:00:45;100319.00;;;14.90;100.00
13348;BME280;6743;49.934;9.138;2023-03-19T12:06:12;100313.16;;;15.01;100.00
13348;BME280;6743;49.934;9.138;2023-03-19T12:08:48;100317.09;;;15.05;100.00
13348;BME280;6743;49.934;9.138;2023-03-19T12:11:23;100311.56;;;15.07;100.00
13348;BME280;6743;49.934;9.138;2023-03-19T12:14:05;100314.34;;;15.20;100.00
13348;BME280;6743;49.934;9.138;2023-03-19T12:16:43;100310.25;;;15.24;100.00
13348;BME280;6743;49.934;9.138;2023-03-19T12:19:37;100308.47;;;15.31;100.00
13348;BME280;6743;49.934;9.138;2023-03-19T12:22:15;100303.84;;;15.46;100.00
13348;BME280;6743;49.934;9.138;2023-03-19T12:24:57;100299.91;;;15.42;100.00
13348;BME280;6743;49.934;9.138;2023-03-19T12:27:33;100306.41;;;15.54;100.00
13348;BME280;6743;49.934;9.138;2023-03-19T12:30:11;100297.16;;;15.57;100.00
13348;BME280;6743;49.934;9.138;2023-03-19T12:32:51;100296.19;;;15.64;100.00
13348;BME280;6743;49.934;9.138;2023-03-19T12:35:24;100296.62;;;15.68;100.00
13348;BME280;6743;49.934;9.138;2023-03-19T12:37:56;100293.34;;;15.72;100.00
13348;BME280;6743;49.934;9.138;2023-03-19T12:40:28;100298.50;;;15.74;100.00
13348;BME280;6743;49.934;9.138;2023-03-19T12:43:02;100300.53;;;15.72;100.00
13348;BME280;6743;49.934;9.138;2023-03-19T12:45:34;100292.94;;;15.69;100.00
13348;BME280;6743;49.934;9.138;2023-03-19T12:48:04;100290.41;;;15.61;100.00
13348;BME280;6743;49.934;9.138;2023-03-19T12:50:36;100292.91;;;15.62;100.00
13348;BME280;6743;49.934;9.138;2023-03-19T12:53:07;100296.38;;;15.63;100.00
13348;BME280;6743;49.934;9.138;2023-03-19T12:55:40;100292.06;;;15.62;100.00
13348;BME280;6743;49.934;9.138;2023-03-19T12:58:13;100290.22;;;15.62;100.00
13348;BME280;6743;49.934;9.138;2023-03-19T13:00:50;100287.53;;;15.62;100.00
13348;BME280;6743;49.934;9.138;2023-03-19T13:03:22;100288.56;;;15.61;100.00
13348;BME280;6743;49.934;9.138;2023-03-19T13:05:58;100288.78;;;15.66;100.00
13348;BME280;6743;49.934;9.138;2023-03-19T13:08:30;100289.22;;;15.70;100.00